createdAt,value
2022-09-23T00:00:02.986Z,9.86
2022-09-23T00:01:03.057Z,9.81
2022-09-23T00:02:02.943Z,9.76
2022-09-23T00:03:02.914Z,9.78
2022-09-23T00:04:02.925Z,9.76
2022-09-23T00:05:02.948Z,9.79
2022-09-23T00:06:02.890Z,9.81
2022-09-23T00:07:02.863Z,9.86
2022-09-23T00:08:02.849Z,9.89
2022-09-23T00:09:02.856Z,9.84
2022-09-23T00:10:02.869Z,9.81
2022-09-23T00:11:02.824Z,9.78
2022-09-23T00:12:06.872Z,9.79
2022-09-23T00:13:02.788Z,9.79
2022-09-23T00:14:02.815Z,9.81
2022-09-23T00:15:02.799Z,9.83
2022-09-23T00:16:02.771Z,9.76
2022-09-23T00:17:02.811Z,9.71
2022-09-23T00:18:02.731Z,9.68
2022-09-23T00:19:02.708Z,9.71
2022-09-23T00:20:02.725Z,9.71
2022-09-23T00:21:02.675Z,9.65
2022-09-23T00:22:02.682Z,9.57
2022-09-23T00:23:02.665Z,9.56
2022-09-23T00:24:02.665Z,9.60
2022-09-23T00:25:02.652Z,9.61
2022-09-23T00:26:02.653Z,9.64
2022-09-23T00:27:02.645Z,9.64
2022-09-23T00:28:02.614Z,9.58
2022-09-23T00:29:02.567Z,9.56
2022-09-23T00:30:02.562Z,9.57
2022-09-23T00:31:02.633Z,9.61
2022-09-23T00:32:02.577Z,9.65
2022-09-23T00:33:02.522Z,9.61
2022-09-23T00:34:02.545Z,9.57
2022-09-23T00:35:02.486Z,9.54
2022-09-23T00:36:02.492Z,9.54
2022-09-23T00:37:02.504Z,9.53
2022-09-23T00:38:02.463Z,9.53
2022-09-23T00:39:04.291Z,9.48
2022-09-23T00:40:02.665Z,9.42
2022-09-23T00:41:02.447Z,9.39
2022-09-23T00:42:02.428Z,9.39
2022-09-23T00:43:02.412Z,9.36
2022-09-23T00:44:02.380Z,9.33
2022-09-23T00:45:02.354Z,9.32
2022-09-23T00:46:02.385Z,9.33
2022-09-23T00:47:02.348Z,9.35
2022-09-23T00:48:02.316Z,9.33
2022-09-23T00:49:02.344Z,9.31
2022-09-23T00:50:02.523Z,9.32
2022-09-23T00:51:02.280Z,9.33
2022-09-23T00:52:02.279Z,9.32
2022-09-23T00:53:02.257Z,9.28
2022-09-23T00:54:02.285Z,9.23
2022-09-23T00:55:02.225Z,9.18
2022-09-23T00:56:02.222Z,9.14
2022-09-23T00:57:02.202Z,9.13
2022-09-23T00:58:02.217Z,9.15
2022-09-23T00:59:02.172Z,9.15
2022-09-23T01:00:02.162Z,9.17
2022-09-23T01:01:02.243Z,9.17
2022-09-23T01:02:02.189Z,9.14
2022-09-23T01:03:02.143Z,9.13
2022-09-23T01:04:02.112Z,9.10
2022-09-23T01:05:02.125Z,9.11
2022-09-23T01:06:02.093Z,9.13
2022-09-23T01:07:02.084Z,9.14
2022-09-23T01:08:02.065Z,9.17
2022-09-23T01:09:02.111Z,9.17
2022-09-23T01:10:02.083Z,9.14
2022-09-23T01:11:02.037Z,9.14
2022-09-23T01:12:02.053Z,9.11
2022-09-23T01:13:01.992Z,9.05
2022-09-23T01:14:01.980Z,9.01
2022-09-23T01:15:01.981Z,8.94
2022-09-23T01:16:01.988Z,8.91
2022-09-23T01:17:01.973Z,8.91
2022-09-23T01:18:01.953Z,8.92
2022-09-23T01:19:01.909Z,8.92
2022-09-23T01:20:01.921Z,8.89
2022-09-23T01:21:01.880Z,8.84
2022-09-23T01:22:01.880Z,8.84
2022-09-23T01:23:01.864Z,8.84
2022-09-23T01:24:01.929Z,8.83
2022-09-23T01:25:01.837Z,8.83
2022-09-23T01:26:01.823Z,8.81
2022-09-23T01:27:01.821Z,8.77
2022-09-23T01:28:01.789Z,8.77
2022-09-23T01:29:01.807Z,8.81
2022-09-23T01:30:01.777Z,8.83
2022-09-23T01:31:01.841Z,8.86
2022-09-23T01:32:01.773Z,8.87
2022-09-23T01:33:01.727Z,8.86
2022-09-23T01:34:01.715Z,8.83
2022-09-23T01:35:01.741Z,8.79
2022-09-23T01:36:01.684Z,8.79
2022-09-23T01:37:01.675Z,8.74
2022-09-23T01:38:01.709Z,8.66
2022-09-23T01:39:01.682Z,8.58
2022-09-23T01:40:01.662Z,8.50
2022-09-23T01:41:01.618Z,8.45
2022-09-23T01:42:01.610Z,8.41
2022-09-23T01:43:01.590Z,8.44
2022-09-23T01:44:01.618Z,8.47
2022-09-23T01:45:01.575Z,8.50
2022-09-23T01:46:01.555Z,8.50
2022-09-23T01:47:01.532Z,8.52
2022-09-23T01:48:01.569Z,8.55
2022-09-23T01:49:01.588Z,8.59
2022-09-23T01:50:01.599Z,8.65
2022-09-23T01:51:01.488Z,8.71
2022-09-23T01:52:01.484Z,8.77
2022-09-23T01:53:01.462Z,8.81
2022-09-23T01:54:01.452Z,8.84
2022-09-23T01:55:01.432Z,8.91
2022-09-23T01:56:01.459Z,8.92
2022-09-23T01:57:01.422Z,8.95
2022-09-23T01:58:01.390Z,8.96
2022-09-23T01:59:01.378Z,8.99
2022-09-23T02:00:01.402Z,9.02
2022-09-23T02:01:01.409Z,9.01
2022-09-23T02:02:01.384Z,8.99
2022-09-23T02:03:01.317Z,9.01
2022-09-23T02:04:01.440Z,9.02
2022-09-23T02:05:01.310Z,9.01
2022-09-23T02:06:01.318Z,8.94
2022-09-23T02:07:01.272Z,8.91
2022-09-23T02:08:01.301Z,8.87
2022-09-23T02:09:01.249Z,8.89
2022-09-23T02:10:01.242Z,8.83
2022-09-23T02:11:01.254Z,8.74
2022-09-23T02:12:01.204Z,8.65
2022-09-23T02:13:01.202Z,8.65
2022-09-23T02:14:01.191Z,8.65
2022-09-23T02:15:01.179Z,8.63
2022-09-23T02:16:01.222Z,8.55
2022-09-23T02:17:01.292Z,8.45
2022-09-23T02:18:01.125Z,8.40
2022-09-23T02:19:01.129Z,8.33
2022-09-23T02:20:01.103Z,8.28
2022-09-23T02:21:02.046Z,8.20
2022-09-23T02:22:01.084Z,8.16
2022-09-23T02:23:01.055Z,8.16
2022-09-23T02:24:01.059Z,8.19
2022-09-23T02:25:01.040Z,8.23
2022-09-23T02:26:01.040Z,8.25
2022-09-23T02:27:01.027Z,8.26
2022-09-23T02:28:00.995Z,8.29
2022-09-23T02:29:00.984Z,8.33
2022-09-23T02:30:00.992Z,8.38
2022-09-23T02:31:00.997Z,8.37
2022-09-23T02:32:00.993Z,8.38
2022-09-23T02:33:00.927Z,8.41
2022-09-23T02:34:00.906Z,8.41
2022-09-23T02:35:00.903Z,8.41
2022-09-23T02:36:00.894Z,8.40
2022-09-23T02:37:00.900Z,8.36
2022-09-23T02:38:00.909Z,8.30
2022-09-23T02:39:00.927Z,8.25
2022-09-23T02:40:00.850Z,8.22
2022-09-23T02:41:00.857Z,8.22
2022-09-23T02:42:00.819Z,8.19
2022-09-23T02:43:00.826Z,8.15
2022-09-23T02:44:00.789Z,8.08
2022-09-23T02:45:00.784Z,8.04
2022-09-23T02:46:00.808Z,7.98
2022-09-23T02:47:00.765Z,7.98
2022-09-23T02:48:00.728Z,8.01
2022-09-23T02:49:00.739Z,8.05
2022-09-23T02:50:00.701Z,8.11
2022-09-23T02:51:00.700Z,8.18
2022-09-23T02:52:00.692Z,8.23
2022-09-23T02:53:00.688Z,8.20
2022-09-23T02:54:00.676Z,8.12
2022-09-23T02:55:00.632Z,8.04
2022-09-23T02:56:00.635Z,8.00
2022-09-23T02:57:00.671Z,7.92
2022-09-23T02:58:00.633Z,7.85
2022-09-23T02:59:00.621Z,7.83
2022-09-23T03:00:00.573Z,7.79
2022-09-23T03:01:00.616Z,7.63
2022-09-23T03:02:00.667Z,7.49
2022-09-23T03:03:00.546Z,7.46
2022-09-23T03:04:00.541Z,7.39
2022-09-23T03:05:00.524Z,7.28
2022-09-23T03:06:00.506Z,7.17
2022-09-23T03:07:00.528Z,7.13
2022-09-23T03:08:00.475Z,7.17
2022-09-23T03:09:00.490Z,7.13
2022-09-23T03:10:00.444Z,7.07
2022-09-23T03:11:00.487Z,7.07
2022-09-23T03:12:00.449Z,7.13
2022-09-23T03:13:00.419Z,7.12
2022-09-23T03:14:00.562Z,7.09
2022-09-23T03:15:00.398Z,7.13
2022-09-23T03:16:00.564Z,7.20
2022-09-23T03:17:00.384Z,7.21
2022-09-23T03:18:00.359Z,7.21
2022-09-23T03:19:00.357Z,7.27
2022-09-23T03:20:00.345Z,7.32
2022-09-23T03:21:00.299Z,7.34
2022-09-23T03:22:00.333Z,7.37
2022-09-23T03:23:00.283Z,7.42
2022-09-23T03:24:00.280Z,7.43
2022-09-23T03:25:00.299Z,7.42
2022-09-23T03:26:00.225Z,7.43
2022-09-23T03:27:00.286Z,7.45
2022-09-23T03:28:00.199Z,7.43
2022-09-23T03:29:00.196Z,7.43
2022-09-23T03:30:00.197Z,7.45
2022-09-23T03:31:00.165Z,7.46
2022-09-23T03:32:00.210Z,7.42
2022-09-23T03:33:00.168Z,7.43
2022-09-23T03:34:00.165Z,7.42
2022-09-23T03:35:00.132Z,7.35
2022-09-23T03:36:00.108Z,7.39
2022-09-23T03:37:00.078Z,7.42
2022-09-23T03:38:00.111Z,7.43
2022-09-23T03:39:00.080Z,7.45
2022-09-23T03:40:00.087Z,7.46
2022-09-23T03:41:00.038Z,7.50
2022-09-23T03:42:00.016Z,7.49
2022-09-23T03:43:00.045Z,7.50
2022-09-23T03:44:00.021Z,7.50
2022-09-23T03:44:59.988Z,7.49
2022-09-23T03:46:00.017Z,7.43
2022-09-23T03:46:59.966Z,7.40
2022-09-23T03:47:59.939Z,7.40
2022-09-23T03:48:59.962Z,7.43
2022-09-23T03:49:59.951Z,7.42
2022-09-23T03:50:59.920Z,7.40
2022-09-23T03:51:59.887Z,7.37
2022-09-23T03:53:00.200Z,7.32
2022-09-23T03:53:59.932Z,7.25
2022-09-23T03:54:59.881Z,7.20
2022-09-23T03:55:59.858Z,7.10
2022-09-23T03:56:59.832Z,7.07
2022-09-23T03:57:59.903Z,7.07
2022-09-23T03:58:59.832Z,7.10
2022-09-23T03:59:59.810Z,7.15
2022-09-23T04:00:59.833Z,7.16
2022-09-23T04:01:59.845Z,7.13
2022-09-23T04:02:59.752Z,7.09
2022-09-23T04:03:59.825Z,7.03
2022-09-23T04:04:59.726Z,6.98
2022-09-23T04:05:59.707Z,6.92
2022-09-23T04:06:59.713Z,6.87
2022-09-23T04:07:59.686Z,6.79
2022-09-23T04:08:59.698Z,6.76
2022-09-23T04:09:59.654Z,6.73
2022-09-23T04:10:59.926Z,6.73
2022-09-23T04:11:59.616Z,6.74
2022-09-23T04:12:59.661Z,6.80
2022-09-23T04:13:59.586Z,6.80
2022-09-23T04:14:59.632Z,6.80
2022-09-23T04:15:59.609Z,6.84
2022-09-23T04:16:59.559Z,6.87
2022-09-23T04:17:59.535Z,6.84
2022-09-23T04:18:59.593Z,6.87
2022-09-23T04:19:59.526Z,6.91
2022-09-23T04:20:59.548Z,6.92
2022-09-23T04:21:59.531Z,6.91
2022-09-23T04:22:59.487Z,6.89
2022-09-23T04:23:59.463Z,6.88
2022-09-23T04:24:59.465Z,6.85
2022-09-23T04:25:59.481Z,6.87
2022-09-23T04:26:59.449Z,6.89
2022-09-23T04:27:59.414Z,6.95
2022-09-23T04:28:59.430Z,7.02
2022-09-23T04:29:59.410Z,7.09
2022-09-23T04:30:59.380Z,7.17
2022-09-23T04:31:59.501Z,7.21
2022-09-23T04:32:59.387Z,7.21
2022-09-23T04:33:59.330Z,7.20
2022-09-23T04:34:59.332Z,7.20
2022-09-23T04:35:59.332Z,7.17
2022-09-23T04:36:59.325Z,7.16
2022-09-23T04:37:59.278Z,7.21
2022-09-23T04:38:59.400Z,7.24
2022-09-23T04:39:59.292Z,7.28
2022-09-23T04:40:59.262Z,7.30
2022-09-23T04:41:59.238Z,7.35
2022-09-23T04:42:59.222Z,7.42
2022-09-23T04:43:59.197Z,7.49
2022-09-23T04:44:59.214Z,7.55
2022-09-23T04:46:00.146Z,7.52
2022-09-23T04:46:59.198Z,7.46
2022-09-23T04:47:59.155Z,7.40
2022-09-23T04:48:59.209Z,7.39
2022-09-23T04:50:00.058Z,7.35
2022-09-23T04:50:59.127Z,7.34
2022-09-23T04:51:59.090Z,7.35
2022-09-23T04:52:59.091Z,7.37
2022-09-23T04:53:59.064Z,7.39
2022-09-23T04:54:59.057Z,7.42
2022-09-23T04:55:59.116Z,7.43
2022-09-23T04:56:59.048Z,7.42
2022-09-23T04:57:59.035Z,7.40
2022-09-23T04:58:59.011Z,7.35
2022-09-23T04:59:59.016Z,7.31
2022-09-23T05:01:04.391Z,7.27
2022-09-23T05:01:59.015Z,7.23
2022-09-23T05:02:59.001Z,7.24
2022-09-23T05:03:58.958Z,7.27
2022-09-23T05:04:58.942Z,7.31
2022-09-23T05:05:58.916Z,7.31
2022-09-23T05:07:02.310Z,7.32
2022-09-23T05:07:58.906Z,7.30
2022-09-23T05:08:58.993Z,7.25
2022-09-23T05:09:58.867Z,7.21
2022-09-23T05:10:58.900Z,7.21
2022-09-23T05:11:58.847Z,7.25
2022-09-23T05:12:58.828Z,7.27
2022-09-23T05:13:58.921Z,7.28
2022-09-23T05:14:58.802Z,7.25
2022-09-23T05:15:58.896Z,7.23
2022-09-23T05:16:58.789Z,7.16
2022-09-23T05:17:58.757Z,7.09
2022-09-23T05:18:58.751Z,7.05
2022-09-23T05:19:58.741Z,7.02
2022-09-23T05:20:58.858Z,6.98
2022-09-23T05:21:58.727Z,7.02
2022-09-23T05:22:58.697Z,7.03
2022-09-23T05:23:58.676Z,7.06
2022-09-23T05:24:58.671Z,7.10
2022-09-23T05:25:58.693Z,7.13
2022-09-23T05:26:58.668Z,7.15
2022-09-23T05:27:58.631Z,7.20
2022-09-23T05:28:58.611Z,7.24
2022-09-23T05:29:58.597Z,7.27
2022-09-23T05:30:58.606Z,7.31
2022-09-23T05:31:59.031Z,7.34
2022-09-23T05:32:58.604Z,7.39
2022-09-23T05:33:58.568Z,7.42
2022-09-23T05:34:58.532Z,7.46
2022-09-23T05:35:58.516Z,7.49
2022-09-23T05:36:58.517Z,7.52
2022-09-23T05:37:58.505Z,7.53
2022-09-23T05:38:58.508Z,7.55
2022-09-23T05:39:58.471Z,7.58
2022-09-23T05:40:58.483Z,7.57
2022-09-23T05:41:58.481Z,7.50
2022-09-23T05:42:58.449Z,7.48
2022-09-23T05:43:58.414Z,7.45
2022-09-23T05:44:58.443Z,7.48
2022-09-23T05:45:58.411Z,7.45
2022-09-23T05:46:58.476Z,7.46
2022-09-23T05:47:58.373Z,7.48
2022-09-23T05:49:02.093Z,7.52
2022-09-23T05:50:00.497Z,7.50
2022-09-23T05:50:58.325Z,7.50
2022-09-23T05:51:58.312Z,7.53
2022-09-23T05:52:58.305Z,7.57
2022-09-23T05:53:58.569Z,7.55
2022-09-23T05:54:58.310Z,7.57
2022-09-23T05:55:58.352Z,7.63
2022-09-23T05:56:59.294Z,7.68
2022-09-23T05:57:58.232Z,7.71
2022-09-23T05:58:58.294Z,7.75
2022-09-23T05:59:58.223Z,7.77
2022-09-23T06:00:58.229Z,7.77
2022-09-23T06:01:58.271Z,7.80
2022-09-23T06:02:58.305Z,7.85
2022-09-23T06:03:58.169Z,7.89
2022-09-23T06:04:58.131Z,7.92
2022-09-23T06:05:58.132Z,7.95
2022-09-23T06:07:02.804Z,7.95
2022-09-23T06:07:58.095Z,7.95
2022-09-23T06:08:58.093Z,7.93
2022-09-23T06:09:58.070Z,7.95
2022-09-23T06:10:58.047Z,7.97
2022-09-23T06:11:58.078Z,7.97
2022-09-23T06:12:58.084Z,7.97
2022-09-23T06:13:58.046Z,7.97
2022-09-23T06:14:58.007Z,7.98
2022-09-23T06:15:58.096Z,7.98
2022-09-23T06:16:57.994Z,7.95
2022-09-23T06:17:58.021Z,7.92
2022-09-23T06:19:01.766Z,7.86
2022-09-23T06:19:57.950Z,7.82
2022-09-23T06:20:57.936Z,7.82
2022-09-23T06:21:57.922Z,7.83
2022-09-23T06:22:57.899Z,7.85
2022-09-23T06:23:57.939Z,7.86
2022-09-23T06:24:57.918Z,7.89
2022-09-23T06:25:57.863Z,7.90
2022-09-23T06:26:57.859Z,7.93
2022-09-23T06:27:57.825Z,8.00
2022-09-23T06:28:57.825Z,8.02
2022-09-23T06:29:57.817Z,8.05
2022-09-23T06:30:57.868Z,8.08
2022-09-23T06:31:57.811Z,8.16
2022-09-23T06:32:57.763Z,8.19
2022-09-23T06:34:07.243Z,8.23
2022-09-23T06:34:57.754Z,8.28
2022-09-23T06:35:59.832Z,8.30
2022-09-23T06:36:58.215Z,8.34
2022-09-23T06:37:57.708Z,8.36
2022-09-23T06:38:57.694Z,8.38
2022-09-23T06:39:57.700Z,8.43
2022-09-23T06:40:57.694Z,8.44
2022-09-23T06:41:57.738Z,8.48
2022-09-23T06:42:57.636Z,8.52
2022-09-23T06:43:57.624Z,8.53
2022-09-23T06:44:57.675Z,8.56
2022-09-23T06:45:57.622Z,8.59
2022-09-23T06:46:57.644Z,8.62
2022-09-23T06:47:57.564Z,8.65
2022-09-23T06:48:57.610Z,8.71
2022-09-23T06:49:57.550Z,8.76
2022-09-23T06:50:57.547Z,8.80
2022-09-23T06:51:57.516Z,8.87
2022-09-23T06:52:57.522Z,8.96
2022-09-23T06:53:57.511Z,8.99
2022-09-23T06:54:57.594Z,9.10
2022-09-23T06:55:57.476Z,9.15
2022-09-23T06:56:57.453Z,9.21
2022-09-23T06:57:57.463Z,9.28
2022-09-23T06:58:57.450Z,9.32
2022-09-23T06:59:57.456Z,9.36
2022-09-23T07:00:57.420Z,9.40
2022-09-23T07:01:57.532Z,9.47
2022-09-23T07:02:57.460Z,9.50
2022-09-23T07:03:57.367Z,9.53
2022-09-23T07:04:57.343Z,9.57
2022-09-23T07:05:57.366Z,9.61
2022-09-23T07:06:57.355Z,9.65
2022-09-23T07:07:57.321Z,9.69
2022-09-23T07:08:57.294Z,9.74
2022-09-23T07:09:57.306Z,9.78
2022-09-23T07:10:57.298Z,9.81
2022-09-23T07:11:58.140Z,9.86
2022-09-23T07:12:57.273Z,9.89
2022-09-23T07:13:57.224Z,9.89
2022-09-23T07:14:57.298Z,9.90
2022-09-23T07:15:57.266Z,9.94
2022-09-23T07:16:57.249Z,9.97
2022-09-23T07:17:57.214Z,10.02
2022-09-23T07:18:57.167Z,10.04
2022-09-23T07:19:57.176Z,10.04
2022-09-23T07:20:57.186Z,10.04
2022-09-23T07:21:57.148Z,9.99
2022-09-23T07:22:57.137Z,9.97
2022-09-23T07:23:57.101Z,9.99
2022-09-23T07:24:57.094Z,10.01
2022-09-23T07:25:57.085Z,10.05
2022-09-23T07:26:57.084Z,10.11
2022-09-23T07:27:57.092Z,10.18
2022-09-23T07:28:57.118Z,10.23
2022-09-23T07:29:57.054Z,10.26
2022-09-23T07:31:00.355Z,10.30
2022-09-23T07:32:08.590Z,10.40
2022-09-23T07:32:57.089Z,10.51
2022-09-23T07:33:57.017Z,10.60
2022-09-23T07:34:56.949Z,10.68
2022-09-23T07:35:56.950Z,10.76
2022-09-23T07:36:56.921Z,10.84
2022-09-23T07:37:56.930Z,10.91
2022-09-23T07:38:56.930Z,10.96
2022-09-23T07:39:56.933Z,11.02
2022-09-23T07:40:56.865Z,11.09
2022-09-23T07:41:56.867Z,11.17
2022-09-23T07:42:56.849Z,11.18
2022-09-23T07:43:56.894Z,11.22
2022-09-23T07:44:56.833Z,11.29
2022-09-23T07:45:56.822Z,11.39
2022-09-23T07:46:56.803Z,11.46
2022-09-23T07:47:56.760Z,11.47
2022-09-23T07:48:56.769Z,11.51
2022-09-23T07:49:56.741Z,11.47
2022-09-23T07:50:56.768Z,11.44
2022-09-23T07:51:56.735Z,11.36
2022-09-23T07:52:56.699Z,11.35
2022-09-23T07:53:56.698Z,11.37
2022-09-23T07:54:56.694Z,11.42
2022-09-23T07:55:56.718Z,11.46
2022-09-23T07:56:56.657Z,11.52
2022-09-23T07:57:56.641Z,11.62
2022-09-23T07:58:56.628Z,11.70
2022-09-23T07:59:57.050Z,11.76
2022-09-23T08:00:56.605Z,11.80
2022-09-23T08:01:56.717Z,11.82
2022-09-23T08:02:56.598Z,11.82
2022-09-23T08:03:56.576Z,11.83
2022-09-23T08:04:56.555Z,11.90
2022-09-23T08:05:56.593Z,11.96
2022-09-23T08:06:56.548Z,12.05
2022-09-23T08:07:56.494Z,12.12
2022-09-23T08:08:56.485Z,12.13
2022-09-23T08:09:56.491Z,12.17
2022-09-23T08:10:56.485Z,12.19
2022-09-23T08:11:56.490Z,12.23
2022-09-23T08:12:56.529Z,12.32
2022-09-23T08:13:56.426Z,12.46
2022-09-23T08:14:56.419Z,12.60
2022-09-23T08:15:56.470Z,12.72
2022-09-23T08:16:56.371Z,12.82
2022-09-23T08:17:56.385Z,12.90
2022-09-23T08:18:56.431Z,12.97
2022-09-23T08:19:56.347Z,13.04
2022-09-23T08:20:56.357Z,13.10
2022-09-23T08:21:56.328Z,13.15
2022-09-23T08:22:56.297Z,13.19
2022-09-23T08:23:56.333Z,13.28
2022-09-23T08:24:56.875Z,13.30
2022-09-23T08:25:58.917Z,13.29
2022-09-23T08:26:56.255Z,13.33
2022-09-23T08:27:56.236Z,13.33
2022-09-23T08:28:56.734Z,13.29
2022-09-23T08:29:56.233Z,13.30
2022-09-23T08:30:56.380Z,13.36
2022-09-23T08:31:56.188Z,13.45
2022-09-23T08:32:56.167Z,13.49
2022-09-23T08:33:56.165Z,13.55
2022-09-23T08:34:56.217Z,13.52
2022-09-23T08:35:56.130Z,13.66
2022-09-23T08:36:56.110Z,13.81
2022-09-23T08:37:56.099Z,13.81
2022-09-23T08:38:56.081Z,13.88
2022-09-23T08:39:56.087Z,13.92
2022-09-23T08:40:56.118Z,13.84
2022-09-23T08:41:58.793Z,13.78
2022-09-23T08:42:56.055Z,13.75
2022-09-23T08:43:56.047Z,13.77
2022-09-23T08:44:56.030Z,13.70
2022-09-23T08:45:56.028Z,13.57
2022-09-23T08:46:56.045Z,13.51
2022-09-23T08:47:55.974Z,13.46
2022-09-23T08:48:55.967Z,13.51
2022-09-23T08:49:55.946Z,13.62
2022-09-23T08:50:55.952Z,13.75
2022-09-23T08:51:55.958Z,13.87
2022-09-23T08:52:55.947Z,14.03
2022-09-23T08:53:55.893Z,14.21
2022-09-23T08:54:55.878Z,14.42
2022-09-23T08:55:55.870Z,14.62
2022-09-23T08:56:55.846Z,14.64
2022-09-23T08:58:23.432Z,14.62
2022-09-23T08:58:56.018Z,14.52
2022-09-23T08:59:55.932Z,14.45
2022-09-23T09:00:55.829Z,14.40
2022-09-23T09:01:55.788Z,14.51
2022-09-23T09:02:55.814Z,14.60
2022-09-23T09:03:55.771Z,14.69
2022-09-23T09:04:55.764Z,14.89
2022-09-23T09:05:55.744Z,15.02
2022-09-23T09:07:00.202Z,15.09
2022-09-23T09:07:55.710Z,15.27
2022-09-23T09:08:55.693Z,15.49
2022-09-23T09:09:55.860Z,15.71
2022-09-23T09:10:55.704Z,15.83
2022-09-23T09:11:55.645Z,15.67
2022-09-23T09:12:55.642Z,15.60
2022-09-23T09:13:55.632Z,15.71
2022-09-23T09:14:55.952Z,15.90
2022-09-23T09:15:55.705Z,16.14
2022-09-23T09:17:00.095Z,16.31
2022-09-23T09:17:55.584Z,16.48
2022-09-23T09:18:55.571Z,16.63
2022-09-23T09:19:55.582Z,16.63
2022-09-23T09:20:55.529Z,16.58
2022-09-23T09:21:55.546Z,16.57
2022-09-23T09:22:55.531Z,16.53
2022-09-23T09:23:55.483Z,16.56
2022-09-23T09:24:55.484Z,16.61
2022-09-23T09:25:55.481Z,16.61
2022-09-23T09:26:55.475Z,16.48
2022-09-23T09:27:55.484Z,16.41
2022-09-23T09:29:06.583Z,16.28
2022-09-23T09:29:55.432Z,16.27
2022-09-23T09:30:55.403Z,16.33
2022-09-23T09:31:55.421Z,16.43
2022-09-23T09:32:55.381Z,16.63
2022-09-23T09:33:55.402Z,16.66
2022-09-23T09:34:55.350Z,16.53
2022-09-23T09:35:55.329Z,16.48
2022-09-23T09:36:55.331Z,16.60
2022-09-23T09:37:55.321Z,16.67
2022-09-23T09:38:56.012Z,16.73
2022-09-23T09:39:55.290Z,16.88
2022-09-23T09:40:55.361Z,17.04
2022-09-23T09:41:55.296Z,17.23
2022-09-23T09:42:55.239Z,17.37
2022-09-23T09:43:55.230Z,17.44
2022-09-23T09:44:55.234Z,17.37
2022-09-23T09:45:57.812Z,17.22
2022-09-23T09:46:55.247Z,17.18
2022-09-23T09:47:55.203Z,17.22
2022-09-23T09:48:55.181Z,17.36
2022-09-23T09:49:55.176Z,17.49
2022-09-23T09:50:55.135Z,17.66
2022-09-23T09:51:55.115Z,17.75
2022-09-23T09:52:55.068Z,17.92
2022-09-23T09:53:55.051Z,17.90
2022-09-23T09:54:55.032Z,17.63
2022-09-23T09:55:55.021Z,17.41
2022-09-23T09:56:55.028Z,17.25
2022-09-23T09:57:55.025Z,17.28
2022-09-23T09:58:54.992Z,17.33
2022-09-23T09:59:55.002Z,17.40
2022-09-23T10:00:54.949Z,17.54
2022-09-23T10:01:54.927Z,17.58
2022-09-23T10:02:54.918Z,17.74
2022-09-23T10:03:58.443Z,17.87
2022-09-23T10:04:54.956Z,17.97
2022-09-23T10:05:54.878Z,17.89
2022-09-23T10:06:54.860Z,17.56
2022-09-23T10:07:54.875Z,17.26
2022-09-23T10:08:54.881Z,17.16
2022-09-23T10:09:58.298Z,17.18
2022-09-23T10:10:54.837Z,17.34
2022-09-23T10:11:54.805Z,17.56
2022-09-23T10:12:54.777Z,17.87
2022-09-23T10:13:54.784Z,18.08
2022-09-23T10:14:54.769Z,18.27
2022-09-23T10:15:54.793Z,18.45
2022-09-23T10:16:54.798Z,18.58
2022-09-23T10:17:54.709Z,18.45
2022-09-23T10:18:54.713Z,18.36
2022-09-23T10:19:54.700Z,18.27
2022-09-23T10:20:54.705Z,18.26
2022-09-23T10:21:54.669Z,18.12
2022-09-23T10:22:54.650Z,17.99
2022-09-23T10:23:54.633Z,17.89
2022-09-23T10:24:54.624Z,17.90
2022-09-23T10:25:54.651Z,17.96
2022-09-23T10:26:54.603Z,18.05
2022-09-23T10:27:54.622Z,18.07
2022-09-23T10:28:54.567Z,18.00
2022-09-23T10:29:54.593Z,18.00
2022-09-23T10:30:54.655Z,17.93
2022-09-23T10:31:54.545Z,17.93
2022-09-23T10:32:54.513Z,17.86
2022-09-23T10:33:54.504Z,17.86
2022-09-23T10:34:54.533Z,17.86
2022-09-23T10:35:54.486Z,17.82
2022-09-23T10:36:54.488Z,17.79
2022-09-23T10:37:54.540Z,17.86
2022-09-23T10:38:54.482Z,17.89
2022-09-23T10:39:54.436Z,17.93
2022-09-23T10:40:54.549Z,17.96
2022-09-23T10:41:54.401Z,17.92
2022-09-23T10:42:54.441Z,17.90
2022-09-23T10:43:54.376Z,17.87
2022-09-23T10:44:54.373Z,17.90
2022-09-23T10:45:54.416Z,17.95
2022-09-23T10:46:54.378Z,17.96
2022-09-23T10:47:54.321Z,17.95
2022-09-23T10:48:54.346Z,17.96
2022-09-23T10:49:54.313Z,17.97
2022-09-23T10:50:54.315Z,18.00
2022-09-23T10:51:54.288Z,18.10
2022-09-23T10:52:54.301Z,18.11
2022-09-23T10:53:54.260Z,18.14
2022-09-23T10:54:54.246Z,18.12
2022-09-23T10:55:54.222Z,18.02
2022-09-23T10:56:59.202Z,17.99
2022-09-23T10:57:54.219Z,17.99
2022-09-23T10:58:54.231Z,18.02
2022-09-23T10:59:54.193Z,17.97
2022-09-23T11:00:54.280Z,17.99
2022-09-23T11:01:54.216Z,18.05
2022-09-23T11:02:54.160Z,18.12
2022-09-23T11:03:54.124Z,18.18
2022-09-23T11:04:54.149Z,18.18
2022-09-23T11:05:54.137Z,18.21
2022-09-23T11:06:54.145Z,18.14
2022-09-23T11:07:54.310Z,18.14
2022-09-23T11:08:54.071Z,18.20
2022-09-23T11:09:54.033Z,18.20
2022-09-23T11:10:54.049Z,18.14
2022-09-23T11:11:54.069Z,18.12
2022-09-23T11:12:54.024Z,18.14
2022-09-23T11:13:54.826Z,18.18
2022-09-23T11:14:53.990Z,18.29
2022-09-23T11:15:53.966Z,18.39
2022-09-23T11:16:54.073Z,18.42
2022-09-23T11:17:53.952Z,18.45
2022-09-23T11:18:53.933Z,18.50
2022-09-23T11:19:53.918Z,18.47
2022-09-23T11:20:53.893Z,18.44
2022-09-23T11:21:53.943Z,18.42
2022-09-23T11:22:53.895Z,18.36
2022-09-23T11:23:53.890Z,18.27
2022-09-23T11:24:53.851Z,18.27
2022-09-23T11:25:53.964Z,18.26
2022-09-23T11:26:53.888Z,18.27
2022-09-23T11:27:53.861Z,18.29
2022-09-23T11:28:53.819Z,18.27
2022-09-23T11:29:53.908Z,18.29
2022-09-23T11:30:53.833Z,18.32
2022-09-23T11:31:58.753Z,18.32
2022-09-23T11:32:53.880Z,18.33
2022-09-23T11:33:53.729Z,18.39
2022-09-23T11:34:55.037Z,18.45
2022-09-23T11:35:53.704Z,18.48
2022-09-23T11:36:53.702Z,18.55
2022-09-23T11:37:53.742Z,18.62
2022-09-23T11:38:53.671Z,18.69
2022-09-23T11:39:53.663Z,18.69
2022-09-23T11:40:53.801Z,18.75
2022-09-23T11:41:53.613Z,18.81
2022-09-23T11:42:53.650Z,18.84
2022-09-23T11:43:54.202Z,18.90
2022-09-23T11:44:53.700Z,18.91
2022-09-23T11:45:53.592Z,18.90
2022-09-23T11:46:53.563Z,18.88
2022-09-23T11:47:53.552Z,18.91
2022-09-23T11:48:53.575Z,18.95
2022-09-23T11:49:53.550Z,18.95
2022-09-23T11:50:53.518Z,18.95
2022-09-23T11:51:53.492Z,18.95
2022-09-23T11:52:53.891Z,18.92
2022-09-23T11:53:53.474Z,18.95
2022-09-23T11:54:53.497Z,19.02
2022-09-23T11:55:57.983Z,19.07
2022-09-23T11:56:53.427Z,19.11
2022-09-23T11:57:53.557Z,19.13
2022-09-23T11:58:57.014Z,19.14
2022-09-23T11:59:53.427Z,19.14
2022-09-23T12:00:59.679Z,19.14
2022-09-23T12:01:53.557Z,19.19
2022-09-23T12:03:03.326Z,19.22
2022-09-23T12:03:53.567Z,19.25
2022-09-23T12:04:57.466Z,19.22
2022-09-23T12:05:53.439Z,19.18
2022-09-23T12:06:53.361Z,19.11
2022-09-23T12:07:53.275Z,19.13
2022-09-23T12:08:53.292Z,19.10
2022-09-23T12:09:58.585Z,19.07
2022-09-23T12:10:53.509Z,19.02
2022-09-23T12:11:53.244Z,19.00
2022-09-23T12:12:53.243Z,19.00
2022-09-23T12:13:53.222Z,19.04
2022-09-23T12:14:53.214Z,19.07
2022-09-23T12:15:53.209Z,19.07
2022-09-23T12:16:53.255Z,19.08
2022-09-23T12:17:53.161Z,19.06
2022-09-23T12:18:53.218Z,19.07
2022-09-23T12:19:53.447Z,19.07
2022-09-23T12:20:53.121Z,19.10
2022-09-23T12:21:53.158Z,19.06
2022-09-23T12:22:53.121Z,19.06
2022-09-23T12:23:53.072Z,19.07
2022-09-23T12:24:53.075Z,19.07
2022-09-23T12:25:53.041Z,19.07
2022-09-23T12:26:53.030Z,19.07
2022-09-23T12:27:53.171Z,19.07
2022-09-23T12:28:53.037Z,19.08
2022-09-23T12:29:52.994Z,19.11
2022-09-23T12:30:53.030Z,19.18
2022-09-23T12:31:52.989Z,19.22
2022-09-23T12:32:52.974Z,19.25
2022-09-23T12:33:52.943Z,19.29
2022-09-23T12:34:52.927Z,19.33
2022-09-23T12:35:52.944Z,19.37
2022-09-23T12:36:52.937Z,19.40
2022-09-23T12:37:52.912Z,19.40
2022-09-23T12:38:52.903Z,19.41
2022-09-23T12:39:52.877Z,19.41
2022-09-23T12:40:52.995Z,19.43
2022-09-23T12:41:52.868Z,19.48
2022-09-23T12:42:52.822Z,19.55
2022-09-23T12:43:53.151Z,19.59
2022-09-23T12:44:52.827Z,19.63
2022-09-23T12:45:53.169Z,19.65
2022-09-23T12:46:52.778Z,19.59
2022-09-23T12:47:52.771Z,19.56
2022-09-23T12:48:52.775Z,19.54
2022-09-23T12:49:52.752Z,19.55
2022-09-23T12:50:52.715Z,19.56
2022-09-23T12:51:52.750Z,19.59
2022-09-23T12:52:52.687Z,19.61
2022-09-23T12:53:52.697Z,19.65
2022-09-23T12:54:53.032Z,19.66
2022-09-23T12:55:52.676Z,19.73
2022-09-23T12:56:52.702Z,19.74
2022-09-23T12:57:52.657Z,19.74
2022-09-23T12:58:52.662Z,19.80
2022-09-23T12:59:52.597Z,19.83
2022-09-23T13:00:52.664Z,19.78
2022-09-23T13:01:52.712Z,19.80
2022-09-23T13:02:52.566Z,19.80
2022-09-23T13:03:53.275Z,19.80
2022-09-23T13:04:52.580Z,19.83
2022-09-23T13:05:52.535Z,19.80